createdAt,value
2018-04-08T00:02:09.495Z,9.99
2018-04-08T00:04:37.002Z,9.82
2018-04-08T00:07:04.513Z,9.87
2018-04-08T00:09:32.004Z,9.86
2018-04-08T00:11:59.486Z,9.86
2018-04-08T00:14:27.006Z,9.71
2018-04-08T00:16:54.491Z,9.49
2018-04-08T00:19:21.974Z,9.52
2018-04-08T00:21:49.491Z,9.52
2018-04-08T00:24:16.998Z,9.47
2018-04-08T00:26:44.486Z,9.50
2018-04-08T00:29:11.998Z,9.57
2018-04-08T00:31:39.489Z,9.59
2018-04-08T00:34:06.976Z,9.60
2018-04-08T00:36:34.535Z,9.62
2018-04-08T00:39:02.030Z,9.54
2018-04-08T00:41:29.518Z,9.41
2018-04-08T00:43:57.043Z,9.34
2018-04-08T00:46:24.543Z,9.24
2018-04-08T00:48:52.036Z,9.20
2018-04-08T00:51:19.538Z,9.23
2018-04-08T00:53:47.021Z,9.22
2018-04-08T00:56:14.506Z,9.24
2018-04-08T00:58:42.026Z,9.23
2018-04-08T01:01:09.523Z,9.09
2018-04-08T01:03:37.020Z,8.96
2018-04-08T01:06:04.558Z,9.03
2018-04-08T01:08:32.038Z,9.07
2018-04-08T01:10:59.539Z,9.14
2018-04-08T01:13:27.063Z,9.05
2018-04-08T01:15:54.547Z,9.01
2018-04-08T01:18:22.039Z,8.92
2018-04-08T01:20:49.835Z,8.87
2018-04-08T01:23:17.327Z,8.87
2018-04-08T01:25:44.819Z,8.95
2018-04-08T01:28:12.339Z,8.96
2018-04-08T01:30:39.826Z,9.00
2018-04-08T01:33:07.305Z,9.05
2018-04-08T01:35:34.848Z,9.07
2018-04-08T01:38:02.339Z,9.07
2018-04-08T01:40:29.857Z,9.03
2018-04-08T01:42:57.371Z,8.91
2018-04-08T01:45:24.854Z,8.78
2018-04-08T01:47:52.337Z,8.79
2018-04-08T01:50:20.015Z,8.84
2018-04-08T01:52:47.561Z,8.88
2018-04-08T01:55:15.068Z,8.89
2018-04-08T01:57:43.542Z,8.86
2018-04-08T02:00:11.026Z,8.83
2018-04-08T02:02:38.508Z,8.77
2018-04-08T02:05:06.021Z,8.58
2018-04-08T02:07:33.510Z,8.42
2018-04-08T02:10:01.001Z,8.27
2018-04-08T02:12:28.514Z,8.18
2018-04-08T02:14:56.003Z,8.20
2018-04-08T02:17:23.519Z,8.26
2018-04-08T02:19:51.039Z,8.27
2018-04-08T02:22:18.525Z,8.19
2018-04-08T02:24:46.006Z,8.09
2018-04-08T02:27:13.518Z,8.00
2018-04-08T02:29:41.007Z,8.11
2018-04-08T02:32:08.490Z,8.18
2018-04-08T02:34:35.998Z,8.17
2018-04-08T02:37:03.492Z,8.20
2018-04-08T02:39:30.977Z,8.19
2018-04-08T02:41:58.499Z,8.11
2018-04-08T02:44:26.029Z,8.00
2018-04-08T02:46:53.493Z,7.85
2018-04-08T02:49:21.006Z,7.72
2018-04-08T02:51:48.491Z,7.61
2018-04-08T02:54:15.980Z,7.52
2018-04-08T02:56:43.490Z,7.44
2018-04-08T02:59:10.980Z,7.37
2018-04-08T03:01:38.466Z,7.47
2018-04-08T03:04:05.983Z,7.50
2018-04-08T03:06:33.470Z,7.46
2018-04-08T03:09:00.968Z,7.46
2018-04-08T03:11:28.498Z,7.45
2018-04-08T03:13:55.998Z,7.41
2018-04-08T03:16:23.482Z,7.43
2018-04-08T03:18:51.954Z,7.51
2018-04-08T03:21:19.443Z,7.53
2018-04-08T03:23:46.925Z,7.48
2018-04-08T03:26:14.436Z,7.39
2018-04-08T03:28:41.951Z,7.33
2018-04-08T03:31:09.452Z,7.28
2018-04-08T03:33:36.972Z,7.29
2018-04-08T03:36:04.462Z,7.24
2018-04-08T03:38:31.947Z,7.18
2018-04-08T03:40:59.462Z,7.28
2018-04-08T03:43:27.002Z,7.57
2018-04-08T03:45:54.541Z,7.71
2018-04-08T03:48:22.046Z,7.69
2018-04-08T03:50:49.558Z,7.58
2018-04-08T03:53:17.041Z,7.44
2018-04-08T03:55:44.551Z,7.38
2018-04-08T03:58:12.042Z,7.34
2018-04-08T04:00:39.547Z,7.27
2018-04-08T04:03:07.064Z,7.20
2018-04-08T04:05:34.561Z,7.05
2018-04-08T04:08:02.055Z,7.04
2018-04-08T04:10:29.595Z,7.02
2018-04-08T04:12:57.079Z,6.95
2018-04-08T04:15:24.562Z,6.88
2018-04-08T04:17:52.071Z,6.82
2018-04-08T04:20:31.356Z,6.74
2018-04-08T04:23:10.585Z,6.66
2018-04-08T04:28:36.962Z,6.82
2018-04-08T04:31:04.455Z,6.87
2018-04-08T04:33:31.951Z,6.84
2018-04-08T04:35:59.471Z,6.79
2018-04-08T04:38:26.958Z,6.84
2018-04-08T04:40:54.481Z,6.95
2018-04-08T04:43:21.987Z,7.01
2018-04-08T04:45:49.482Z,7.16
2018-04-08T04:48:16.977Z,7.29
2018-04-08T04:50:44.496Z,7.34
2018-04-08T04:53:11.987Z,7.39
2018-04-08T04:55:39.487Z,7.47
2018-04-08T04:58:07.003Z,7.53
2018-04-08T05:00:34.490Z,7.72
2018-04-08T05:03:01.983Z,7.82
2018-04-08T05:05:29.499Z,7.90
2018-04-08T05:07:57.051Z,8.02
2018-04-08T05:10:24.524Z,8.06
2018-04-08T05:12:52.034Z,8.25
2018-04-08T05:15:19.524Z,8.44
2018-04-08T05:17:47.006Z,8.59
2018-04-08T05:20:14.523Z,8.77
2018-04-08T05:22:42.006Z,8.97
2018-04-08T05:25:09.497Z,9.24
2018-04-08T05:27:37.006Z,9.65
2018-04-08T05:30:04.495Z,9.78
2018-04-08T05:32:31.993Z,9.66
2018-04-08T05:34:59.540Z,9.46
2018-04-08T05:37:27.018Z,9.47
2018-04-08T05:39:54.511Z,9.55
2018-04-08T05:42:22.017Z,9.61
2018-04-08T05:44:49.515Z,9.75
2018-04-08T05:47:17.011Z,9.89
2018-04-08T05:49:44.517Z,9.76
2018-04-08T05:52:12.013Z,10.19
2018-04-08T05:54:39.518Z,10.42
2018-04-08T05:57:07.039Z,10.58
2018-04-08T05:59:34.526Z,10.62
2018-04-08T06:02:02.036Z,10.73
2018-04-08T06:04:29.558Z,10.83
2018-04-08T06:06:57.047Z,11.53
2018-04-08T06:09:24.538Z,12.08
2018-04-08T06:11:52.051Z,12.60
2018-04-08T06:14:19.555Z,12.79
2018-04-08T06:16:47.063Z,13.04
2018-04-08T06:19:14.574Z,13.19
2018-04-08T06:21:42.090Z,13.28
2018-04-08T06:24:09.583Z,13.32
2018-04-08T06:26:37.119Z,13.63
2018-04-08T06:29:04.667Z,13.99
2018-04-08T06:31:32.162Z,14.40
2018-04-08T06:33:59.684Z,14.31
2018-04-08T06:36:27.169Z,14.62
2018-04-08T06:38:54.655Z,15.19
2018-04-08T06:41:23.083Z,15.14
2018-04-08T06:43:50.601Z,15.31
2018-04-08T06:46:18.086Z,15.52
2018-04-08T06:48:45.603Z,16.08
2018-04-08T06:51:13.094Z,16.57
2018-04-08T06:53:40.591Z,15.73
2018-04-08T06:56:08.123Z,15.52
2018-04-08T06:58:35.614Z,15.67
2018-04-08T07:01:03.102Z,16.30
2018-04-08T07:03:30.620Z,16.32
2018-04-08T07:05:59.007Z,16.12
2018-04-08T07:08:26.525Z,16.62
2018-04-08T07:10:54.030Z,15.94
2018-04-08T07:13:21.514Z,15.66
2018-04-08T07:15:48.994Z,15.89
2018-04-08T07:18:16.530Z,16.29
2018-04-08T07:20:44.019Z,16.46
2018-04-08T07:23:11.511Z,16.84
2018-04-08T07:25:39.023Z,16.55
2018-04-08T07:28:06.509Z,17.54
2018-04-08T07:30:34.059Z,17.03
2018-04-08T07:33:01.578Z,17.23
2018-04-08T07:35:29.066Z,17.73
2018-04-08T07:37:56.551Z,17.59
2018-04-08T07:40:24.079Z,17.60
2018-04-08T07:42:51.566Z,18.06
2018-04-08T07:45:19.046Z,19.65
2018-04-08T07:47:46.550Z,18.73
2018-04-08T07:50:14.035Z,18.50
2018-04-08T07:52:41.518Z,18.75
2018-04-08T07:55:09.034Z,18.60
2018-04-08T07:57:36.525Z,18.54
2018-04-08T08:00:04.072Z,18.48
2018-04-08T08:02:31.596Z,18.30
2018-04-08T08:04:59.103Z,18.63
2018-04-08T08:07:26.598Z,18.25
2018-04-08T08:09:54.120Z,18.05
2018-04-08T08:12:21.637Z,18.58
2018-04-08T08:14:49.140Z,18.55
2018-04-08T08:17:16.653Z,19.22
2018-04-08T08:19:44.142Z,20.53
2018-04-08T08:22:11.682Z,21.31
2018-04-08T08:24:39.202Z,22.49
2018-04-08T08:27:06.697Z,21.13
2018-04-08T08:29:34.208Z,20.77
2018-04-08T08:32:01.746Z,21.79
2018-04-08T08:34:29.248Z,21.05
2018-04-08T08:36:57.065Z,20.08
2018-04-08T08:39:24.679Z,19.77
2018-04-08T08:41:52.176Z,20.66
2018-04-08T08:44:19.670Z,20.35
2018-04-08T08:46:47.193Z,19.54
2018-04-08T08:49:14.691Z,20.41
2018-04-08T08:51:42.195Z,19.98
2018-04-08T08:54:09.749Z,20.73
2018-04-08T08:56:37.239Z,20.80
2018-04-08T08:59:04.747Z,20.98
2018-04-08T09:01:32.280Z,20.73
2018-04-08T09:03:59.776Z,20.72
2018-04-08T09:06:27.278Z,20.70
2018-04-08T09:08:54.801Z,20.60
2018-04-08T09:11:22.367Z,20.55
2018-04-08T09:13:49.866Z,20.27
2018-04-08T09:16:17.395Z,20.52
2018-04-08T09:18:44.886Z,20.58
2018-04-08T09:21:18.048Z,21.32
2018-04-08T09:23:47.400Z,20.71
2018-04-08T09:26:14.926Z,21.17
2018-04-08T09:28:42.442Z,22.09
2018-04-08T09:31:09.939Z,22.35
2018-04-08T09:33:37.434Z,21.81
2018-04-08T09:36:04.995Z,21.24
2018-04-08T09:38:32.486Z,21.53
2018-04-08T09:40:59.985Z,22.49
2018-04-08T09:43:27.507Z,21.81
2018-04-08T09:45:54.999Z,20.88
2018-04-08T09:48:22.494Z,21.52
2018-04-08T09:50:50.015Z,23.94
2018-04-08T09:53:18.747Z,24.10
2018-04-08T09:55:46.251Z,22.32
2018-04-08T09:58:14.274Z,22.11
2018-04-08T10:03:50.555Z,26.00
2018-04-08T10:06:18.051Z,23.39
2018-04-08T10:08:45.545Z,22.92
2018-04-08T10:11:13.065Z,22.11
2018-04-08T10:13:40.564Z,22.13
2018-04-08T10:16:08.050Z,22.98
2018-04-08T10:18:35.574Z,24.48
2018-04-08T10:21:03.073Z,25.39
2018-04-08T10:23:30.567Z,25.01
2018-04-08T10:25:58.096Z,23.16
2018-04-08T10:28:25.583Z,22.91
2018-04-08T10:30:53.090Z,24.46
2018-04-08T10:33:20.607Z,25.07
2018-04-08T10:35:48.104Z,25.16
2018-04-08T10:38:15.591Z,24.66
2018-04-08T10:40:43.114Z,24.81
2018-04-08T10:43:10.623Z,26.75
2018-04-08T10:45:38.123Z,27.87
2018-04-08T10:48:05.633Z,26.05
2018-04-08T10:50:33.126Z,24.10
2018-04-08T10:53:00.616Z,24.09
2018-04-08T10:55:28.126Z,24.58
2018-04-08T10:57:55.619Z,24.77
2018-04-08T11:00:23.114Z,25.61
2018-04-08T11:02:50.626Z,25.05
2018-04-08T11:05:18.122Z,23.12
2018-04-08T11:07:45.622Z,23.07
2018-04-08T11:10:13.144Z,24.11
2018-04-08T11:12:40.654Z,22.62
2018-04-08T11:15:08.150Z,22.35
2018-04-08T11:17:35.666Z,22.08
2018-04-08T11:20:03.164Z,23.98
2018-04-08T11:22:30.667Z,23.20
2018-04-08T11:24:58.183Z,22.35
2018-04-08T11:27:25.665Z,22.47
2018-04-08T11:29:53.160Z,21.26
2018-04-08T11:32:20.669Z,20.87
2018-04-08T11:34:48.172Z,20.80
2018-04-08T11:37:15.664Z,22.05
2018-04-08T11:39:43.183Z,21.41
2018-04-08T11:42:10.678Z,20.65
2018-04-08T11:44:38.209Z,20.64
2018-04-08T11:47:05.725Z,21.62
2018-04-08T11:49:33.242Z,21.63
2018-04-08T11:52:00.730Z,20.79
2018-04-08T11:54:28.271Z,20.94
2018-04-08T11:56:55.758Z,22.01
2018-04-08T11:59:23.250Z,23.32
2018-04-08T12:01:50.771Z,21.90
2018-04-08T12:04:18.266Z,21.57
2018-04-08T12:06:45.769Z,21.50
2018-04-08T12:09:13.290Z,21.61
2018-04-08T12:11:40.783Z,21.30
2018-04-08T12:14:08.279Z,22.01
2018-04-08T12:16:35.839Z,21.65
2018-04-08T12:19:03.337Z,20.35
2018-04-08T12:21:31.730Z,19.33
2018-04-08T12:23:59.274Z,19.40
2018-04-08T12:26:26.762Z,19.43
2018-04-08T12:28:54.315Z,19.12
2018-04-08T12:31:21.850Z,19.18
2018-04-08T12:33:49.328Z,19.18
2018-04-08T12:36:16.835Z,19.17
2018-04-08T12:38:44.359Z,19.01
2018-04-08T12:41:11.862Z,19.21
2018-04-08T12:43:39.364Z,19.33
2018-04-08T12:46:06.893Z,19.67
2018-04-08T12:48:34.404Z,19.28
2018-04-08T12:51:01.927Z,19.58
2018-04-08T12:53:29.455Z,19.50
2018-04-08T12:55:56.951Z,19.58
2018-04-08T12:58:24.523Z,19.41
2018-04-08T13:00:52.106Z,19.37
2018-04-08T13:03:19.589Z,19.20
2018-04-08T13:05:47.087Z,19.53
2018-04-08T13:08:14.602Z,19.41
2018-04-08T13:10:42.086Z,19.45
2018-04-08T13:13:09.573Z,19.86
2018-04-08T13:15:37.101Z,19.72
2018-04-08T13:18:04.594Z,19.53
2018-04-08T13:20:32.084Z,19.48
2018-04-08T13:22:59.603Z,19.73
2018-04-08T13:25:27.135Z,19.62
2018-04-08T13:27:54.641Z,19.54
2018-04-08T13:30:22.159Z,19.47
2018-04-08T13:32:49.677Z,19.76
2018-04-08T13:35:17.250Z,19.61
2018-04-08T13:37:44.790Z,19.65
2018-04-08T13:40:12.282Z,19.71
2018-04-08T13:42:39.778Z,19.77
2018-04-08T13:45:07.295Z,19.80
2018-04-08T13:47:34.803Z,19.71
2018-04-08T13:50:02.309Z,19.74
2018-04-08T13:52:29.829Z,19.57
2018-04-08T13:54:57.330Z,19.67
2018-04-08T13:57:24.822Z,19.61
2018-04-08T13:59:52.352Z,19.75
2018-04-08T14:02:19.838Z,19.74
2018-04-08T14:04:47.321Z,19.80
2018-04-08T14:07:14.837Z,19.73
2018-04-08T14:09:42.335Z,19.67
2018-04-08T14:12:09.832Z,19.74
2018-04-08T14:14:37.354Z,19.85
2018-04-08T14:17:04.849Z,19.70
2018-04-08T14:19:32.346Z,19.74
2018-04-08T14:21:59.873Z,19.76
2018-04-08T14:24:27.414Z,19.86
2018-04-08T14:26:54.890Z,19.83
2018-04-08T14:29:22.425Z,19.87
2018-04-08T14:31:49.909Z,19.77
2018-04-08T14:34:17.393Z,19.67
2018-04-08T14:36:44.912Z,19.82
2018-04-08T14:39:12.401Z,19.78
2018-04-08T14:41:40.419Z,19.80
2018-04-08T14:44:07.942Z,19.71
2018-04-08T14:46:35.437Z,19.87
2018-04-08T14:49:02.921Z,19.94
2018-04-08T14:51:30.435Z,20.02
2018-04-08T14:53:57.936Z,20.06
2018-04-08T14:56:25.430Z,19.96
2018-04-08T14:58:52.943Z,19.93
2018-04-08T15:01:20.450Z,19.85
2018-04-08T15:03:47.944Z,19.86
2018-04-08T15:06:15.463Z,19.95
2018-04-08T15:08:42.955Z,19.90
2018-04-08T15:11:10.447Z,19.81
2018-04-08T15:13:37.962Z,19.88
2018-04-08T15:16:05.462Z,19.88
2018-04-08T15:18:33.003Z,20.00
2018-04-08T15:21:00.519Z,20.02
2018-04-08T15:23:28.032Z,19.96
2018-04-08T15:25:55.523Z,19.75
2018-04-08T15:28:23.042Z,19.86
2018-04-08T15:30:50.531Z,19.89
2018-04-08T15:33:18.037Z,19.97
2018-04-08T15:35:45.545Z,19.98
2018-04-08T15:38:13.026Z,19.87
2018-04-08T15:40:40.533Z,19.79
2018-04-08T15:43:08.056Z,19.79
2018-04-08T15:45:35.542Z,19.86
2018-04-08T15:48:03.027Z,19.82
2018-04-08T15:50:30.538Z,19.70
2018-04-08T15:52:58.033Z,19.79
2018-04-08T15:55:25.525Z,19.69
2018-04-08T15:57:53.030Z,19.67
2018-04-08T16:00:20.518Z,19.77
2018-04-08T16:02:48.055Z,19.82
2018-04-08T16:05:15.583Z,19.72
2018-04-08T16:07:43.079Z,19.73
2018-04-08T16:10:10.575Z,19.57
2018-04-08T16:12:38.088Z,19.51
2018-04-08T16:15:05.592Z,19.59
2018-04-08T16:17:33.074Z,19.56
2018-04-08T16:20:00.590Z,19.54
2018-04-08T16:22:28.086Z,19.50
2018-04-08T16:24:55.570Z,19.49
2018-04-08T16:27:23.094Z,19.41
2018-04-08T16:29:50.614Z,19.26
2018-04-08T16:32:18.108Z,19.28
2018-04-08T16:34:45.618Z,19.25
2018-04-08T16:37:13.121Z,19.23
2018-04-08T16:39:40.607Z,19.16
2018-04-08T16:42:08.132Z,19.13
2018-04-08T16:44:35.619Z,19.13
2018-04-08T16:47:03.095Z,19.12
2018-04-08T16:49:30.620Z,19.06
2018-04-08T16:51:58.108Z,19.01
2018-04-08T16:54:25.607Z,18.97
2018-04-08T16:56:53.111Z,18.93
2018-04-08T16:59:20.590Z,18.86
2018-04-08T17:01:48.066Z,18.79
2018-04-08T17:04:15.571Z,18.72
2018-04-08T17:06:43.079Z,18.64
2018-04-08T17:09:10.563Z,18.57
2018-04-08T17:11:38.079Z,18.54
2018-04-08T17:14:05.558Z,18.43
2018-04-08T17:16:33.032Z,18.34
2018-04-08T17:19:00.551Z,18.32
2018-04-08T17:21:28.038Z,18.21
2018-04-08T17:23:55.528Z,18.14
2018-04-08T17:26:23.051Z,18.07
2018-04-08T17:28:50.534Z,18.00
2018-04-08T17:31:18.044Z,17.92
2018-04-08T17:33:45.558Z,17.78
2018-04-08T17:36:13.058Z,17.73
2018-04-08T17:38:40.546Z,17.62
2018-04-08T17:41:08.051Z,17.47
2018-04-08T17:43:35.533Z,17.33
2018-04-08T17:46:03.014Z,17.25
2018-04-08T17:48:30.533Z,17.14
2018-04-08T17:50:58.054Z,17.13
2018-04-08T17:53:25.536Z,17.02
2018-04-08T17:55:53.048Z,16.92
2018-04-08T17:58:20.546Z,16.89
2018-04-08T18:00:48.034Z,16.83
2018-04-08T18:03:15.639Z,16.84
2018-04-08T18:05:43.122Z,16.68
2018-04-08T18:08:10.603Z,16.59
2018-04-08T18:10:38.124Z,16.55
2018-04-08T18:13:05.616Z,16.47
2018-04-08T18:15:33.102Z,16.42
2018-04-08T18:18:00.610Z,16.42
2018-04-08T18:20:28.093Z,16.36
2018-04-08T18:22:55.587Z,16.20
2018-04-08T18:25:23.106Z,16.12
2018-04-08T18:27:50.590Z,16.10
2018-04-08T18:30:18.092Z,16.01
2018-04-08T18:32:45.604Z,15.97
2018-04-08T18:35:13.090Z,15.84
2018-04-08T18:37:40.573Z,15.67
2018-04-08T18:40:08.086Z,15.62
2018-04-08T18:42:35.570Z,15.62
2018-04-08T18:45:03.050Z,15.55
2018-04-08T18:47:30.564Z,15.50
2018-04-08T18:49:58.057Z,15.50
2018-04-08T18:52:25.542Z,15.48
2018-04-08T18:54:53.049Z,15.41
2018-04-08T18:57:20.538Z,15.23
2018-04-08T18:59:48.023Z,15.20
2018-04-08T19:02:15.530Z,15.08
2018-04-08T19:04:43.043Z,15.00
2018-04-08T19:07:10.552Z,14.86
2018-04-08T19:09:38.095Z,14.74
2018-04-08T19:12:05.615Z,14.51
2018-04-08T19:14:38.718Z,14.47
2018-04-08T19:17:06.223Z,14.51
2018-04-08T19:19:33.721Z,14.40
2018-04-08T19:22:01.233Z,14.31
2018-04-08T19:24:28.722Z,14.31
2018-04-08T19:26:56.212Z,14.24
2018-04-08T19:29:23.726Z,14.14
2018-04-08T19:31:51.212Z,13.87
2018-04-08T19:34:18.701Z,13.85
2018-04-08T19:36:46.261Z,13.79
2018-04-08T19:39:13.743Z,13.89
2018-04-08T19:41:41.226Z,13.85
2018-04-08T19:44:08.733Z,13.79
2018-04-08T19:46:36.227Z,13.73
2018-04-08T19:49:03.750Z,13.63
2018-04-08T19:51:31.279Z,13.57
2018-04-08T19:53:58.772Z,13.52
2018-04-08T19:56:26.262Z,13.50
2018-04-08T19:58:53.778Z,13.42
2018-04-08T20:01:21.271Z,13.36
2018-04-08T20:03:48.754Z,13.19
2018-04-08T20:06:16.283Z,13.25
2018-04-08T20:08:43.787Z,13.41
2018-04-08T20:11:11.286Z,13.37
2018-04-08T20:13:38.793Z,13.47
2018-04-08T20:16:06.295Z,13.53
2018-04-08T20:18:33.777Z,13.28
2018-04-08T20:21:01.283Z,13.13
2018-04-08T20:23:28.767Z,13.07
2018-04-08T20:25:56.263Z,13.03
2018-04-08T20:28:23.775Z,12.94
2018-04-08T20:30:51.267Z,12.94
2018-04-08T20:33:18.749Z,12.93
2018-04-08T20:35:46.275Z,12.92
2018-04-08T20:38:13.764Z,12.88
2018-04-08T20:40:41.247Z,12.87
2018-04-08T20:43:09.255Z,12.64
2018-04-08T20:45:36.742Z,12.69
2018-04-08T20:48:04.231Z,12.67
2018-04-08T20:50:31.819Z,12.87
2018-04-08T20:52:59.322Z,12.91
2018-04-08T20:55:26.815Z,12.87
2018-04-08T20:57:54.331Z,12.79
2018-04-08T21:00:21.822Z,12.71
2018-04-08T21:02:49.307Z,12.69
2018-04-08T21:05:16.819Z,12.58
2018-04-08T21:07:44.316Z,12.46
2018-04-08T21:10:11.807Z,12.50
2018-04-08T21:12:39.342Z,12.36
2018-04-08T21:15:06.832Z,12.28
2018-04-08T21:17:34.318Z,12.17
2018-04-08T21:20:01.831Z,12.06
2018-04-08T21:22:29.317Z,11.96
2018-04-08T21:24:56.812Z,11.90
2018-04-08T21:27:24.326Z,11.79
2018-04-08T21:29:51.819Z,11.67
2018-04-08T21:32:19.305Z,11.75
2018-04-08T21:34:46.821Z,11.78
2018-04-08T21:37:14.313Z,11.72
2018-04-08T21:39:41.794Z,11.62
2018-04-08T21:42:09.315Z,11.57
2018-04-08T21:44:36.830Z,11.49
2018-04-08T21:47:04.324Z,11.42
2018-04-08T21:49:31.839Z,11.35
2018-04-08T21:51:59.327Z,11.30
2018-04-08T21:54:26.830Z,11.27
2018-04-08T21:56:54.346Z,11.21
2018-04-08T21:59:21.843Z,11.20
2018-04-08T22:01:49.340Z,11.13
2018-04-08T22:04:16.859Z,11.07
2018-04-08T22:06:44.349Z,11.00
2018-04-08T22:09:11.847Z,10.94
2018-04-08T22:11:39.358Z,10.91
2018-04-08T22:14:06.851Z,10.82
2018-04-08T22:16:34.357Z,10.71
2018-04-08T22:19:02.844Z,10.53
2018-04-08T22:21:30.401Z,10.58
2018-04-08T22:23:57.903Z,10.50
2018-04-08T22:26:25.426Z,10.41
2018-04-08T22:28:52.919Z,10.42
2018-04-08T22:31:20.415Z,10.40
2018-04-08T22:33:47.934Z,10.39
2018-04-08T22:36:15.427Z,10.34
2018-04-08T22:38:42.923Z,10.31
2018-04-08T22:41:10.446Z,10.24
2018-04-08T22:43:37.938Z,10.17
2018-04-08T22:46:05.440Z,10.13
2018-04-08T22:48:32.963Z,10.11
2018-04-08T22:51:00.459Z,10.08
2018-04-08T22:53:27.959Z,10.01
2018-04-08T22:55:55.474Z,9.97
2018-04-08T22:58:22.962Z,9.92
2018-04-08T23:00:50.452Z,9.87
2018-04-08T23:03:17.976Z,9.84
2018-04-08T23:05:45.470Z,9.78
2018-04-08T23:08:12.967Z,9.68
2018-04-08T23:10:40.478Z,9.74
2018-04-08T23:13:07.968Z,9.76
2018-04-08T23:15:35.454Z,9.75
2018-04-08T23:18:02.961Z,9.70
2018-04-08T23:20:30.474Z,9.63
2018-04-08T23:22:57.962Z,9.62
2018-04-08T23:25:25.491Z,9.55
2018-04-08T23:27:52.973Z,9.64
2018-04-08T23:30:20.458Z,9.72
2018-04-08T23:32:47.979Z,9.74
2018-04-08T23:35:15.475Z,9.70
2018-04-08T23:37:42.971Z,9.65
2018-04-08T23:40:10.482Z,9.65
2018-04-08T23:42:37.994Z,9.63
2018-04-08T23:45:05.515Z,9.61
2018-04-08T23:47:33.026Z,9.56
2018-04-08T23:50:00.538Z,9.51
2018-04-08T23:52:28.024Z,9.48
2018-04-08T23:54:55.567Z,9.45
2018-04-08T23:57:23.055Z,9.39
2018-04-08T23:59:50.538Z,9.38
